createdAt,value
2019-04-07T00:00:23.343Z,31.7
2019-04-07T00:05:17.279Z,26.7
2019-04-07T00:10:16.798Z,29.4
2019-04-07T00:15:16.898Z,33
2019-04-07T00:20:17.546Z,32.2
2019-04-07T00:25:41.961Z,54
2019-04-07T00:30:17.111Z,29.9
2019-04-07T00:35:32.108Z,28.5
2019-04-07T00:40:46.911Z,31.9
2019-04-07T00:45:22.489Z,37.1
2019-04-07T00:50:22.286Z,31.1
2019-04-07T00:55:17.540Z,24.2
2019-04-07T01:00:18.151Z,32
2019-04-07T01:05:34.069Z,31.2
2019-04-07T01:10:17.503Z,35.4
2019-04-07T01:15:33.139Z,32
2019-04-07T01:20:37.878Z,24.1
2019-04-07T01:25:27.690Z,29.7
2019-04-07T01:30:17.202Z,32
2019-04-07T01:35:21.374Z,31
2019-04-07T01:40:35.367Z,30.1
2019-04-07T01:45:32.157Z,32.7
2019-04-07T01:50:29.652Z,32
2019-04-07T01:55:25.746Z,26.5
2019-04-07T02:00:20.443Z,32.1
2019-04-07T02:05:28.905Z,37.2
2019-04-07T02:10:32.608Z,21.9
2019-04-07T02:15:17.384Z,32.8
2019-04-07T02:20:20.713Z,32.2
2019-04-07T02:25:26.260Z,34
2019-04-07T02:30:17.789Z,50.3
2019-04-07T02:35:23.016Z,34.3
2019-04-07T02:40:21.377Z,30.3
2019-04-07T02:45:30.254Z,25
2019-04-07T02:50:33.361Z,35.5
2019-04-07T02:55:33.527Z,29.4
2019-04-07T03:00:20.332Z,31.1
2019-04-07T03:10:22.999Z,32.3
2019-04-07T03:15:17.159Z,31.6
2019-04-07T03:20:17.045Z,41.7
2019-04-07T03:25:26.199Z,34
2019-04-07T03:30:17.856Z,27.9
2019-04-07T03:35:25.018Z,34
2019-04-07T03:40:27.997Z,49.1
2019-04-07T03:45:37.910Z,32.5
2019-04-07T03:50:38.533Z,40.9
2019-04-07T03:55:21.855Z,32.6
2019-04-07T04:00:33.880Z,32.1
2019-04-07T04:05:37.718Z,32.2
2019-04-07T04:10:18.110Z,32.1
2019-04-07T04:15:36.441Z,32.6
2019-04-07T04:20:19.756Z,33.7
2019-04-07T04:25:21.687Z,33.7
2019-04-07T04:30:17.650Z,33.5
2019-04-07T04:35:26.980Z,31.5
2019-04-07T04:40:18.722Z,32.5
2019-04-07T04:45:32.297Z,31.2
2019-04-07T04:50:31.682Z,30.4
2019-04-07T04:55:25.548Z,32.2
2019-04-07T05:00:22.428Z,31.4
2019-04-07T05:05:22.145Z,31.4
2019-04-07T05:10:52.320Z,34
2019-04-07T05:15:17.508Z,30.3
2019-04-07T05:20:17.270Z,35.2
2019-04-07T05:25:18.436Z,32.2
2019-04-07T05:30:33.623Z,31.7
2019-04-07T05:35:24.059Z,38.3
2019-04-07T05:40:26.782Z,29.4
2019-04-07T05:45:17.982Z,26.2
2019-04-07T05:50:17.454Z,32.6
2019-04-07T05:55:24.309Z,26.3
2019-04-07T06:00:23.360Z,31.6
2019-04-07T06:05:17.768Z,31.7
2019-04-07T06:10:28.893Z,29.5
2019-04-07T06:15:23.298Z,30.7
2019-04-07T06:20:22.595Z,34.2
2019-04-07T06:25:44.829Z,32.3
2019-04-07T06:30:42.846Z,38.2
2019-04-07T06:35:22.588Z,33.4
2019-04-07T06:40:20.293Z,39
2019-04-07T06:45:20.486Z,41.8
2019-04-07T06:50:17.924Z,50.1
2019-04-07T06:55:16.903Z,39.6
2019-04-07T07:00:23.783Z,46.9
2019-04-07T07:05:23.616Z,38.9
2019-04-07T07:10:26.595Z,39.8
2019-04-07T07:15:16.940Z,42.1
2019-04-07T07:20:17.684Z,51.8
2019-04-07T07:25:29.644Z,39.9
2019-04-07T07:30:19.335Z,38.2
2019-04-07T07:35:18.089Z,38.1
2019-04-07T07:40:34.613Z,41.7
2019-04-07T07:45:22.902Z,39.4
2019-04-07T07:50:20.112Z,37.6
2019-04-07T07:55:23.718Z,37.7
2019-04-07T08:00:19.782Z,35.4
2019-04-07T08:05:22.728Z,23
2019-04-07T08:10:26.630Z,35.5
2019-04-07T08:15:33.633Z,35.9
2019-04-07T08:20:23.092Z,35.4
2019-04-07T08:40:27.408Z,36
2019-04-07T08:50:21.462Z,28.3
2019-04-07T09:05:20.217Z,35.5
2019-04-07T09:15:27.048Z,32.7
2019-04-07T09:20:17.954Z,33.2
2019-04-07T11:50:30.935Z,11.4
2019-04-07T11:55:27.325Z,11.5
2019-04-07T12:15:55.195Z,13.4
2019-04-07T12:20:53.221Z,19.6
2019-04-07T12:25:17.441Z,11.6
2019-04-07T12:30:17.610Z,33.5
2019-04-07T12:35:19.443Z,9.2
2019-04-07T12:40:20.656Z,11.8
2019-04-07T12:45:38.460Z,14.2
2019-04-07T12:50:22.179Z,9.5
2019-04-07T13:00:59.834Z,23.2
2019-04-07T13:05:17.505Z,10
2019-04-07T13:10:23.573Z,16.1
2019-04-07T13:45:17.829Z,16.9
2019-04-07T13:50:25.354Z,15.2
2019-04-07T13:55:40.839Z,28.4
2019-04-07T14:00:33.891Z,9.1
2019-04-07T14:50:33.128Z,4.2
2019-04-07T15:10:42.623Z,5.8
2019-04-07T15:15:18.567Z,7.8
2019-04-07T16:45:27.182Z,6.9
2019-04-07T16:50:20.356Z,3.8
2019-04-07T16:55:34.890Z,5.4
2019-04-07T17:00:36.464Z,8.6
2019-04-07T17:05:48.834Z,5.6
2019-04-07T17:15:19.475Z,8.9
2019-04-07T17:25:17.575Z,13.1
2019-04-07T17:30:23.165Z,2.7
2019-04-07T17:35:28.343Z,16.9
2019-04-07T17:40:17.241Z,17
2019-04-07T17:45:41.794Z,17.1
2019-04-07T18:10:23.697Z,7.1
2019-04-07T18:15:19.093Z,7.2
2019-04-07T18:20:22.933Z,7.7
2019-04-07T18:25:17.305Z,12.4
2019-04-07T18:30:31.402Z,13.3
2019-04-07T18:35:23.812Z,15.3
2019-04-07T18:40:33.518Z,16.9
2019-04-07T18:45:17.761Z,12
2019-04-07T18:50:16.770Z,18.8
2019-04-07T19:00:17.271Z,17.4
2019-04-07T19:05:22.607Z,16.8
2019-04-07T19:10:21.586Z,14.2
2019-04-07T19:15:22.247Z,15.6
2019-04-07T19:20:22.020Z,17.8
2019-04-07T19:25:19.233Z,15.2
2019-04-07T19:30:22.936Z,15.2
2019-04-07T19:35:21.832Z,9.7
2019-04-07T19:40:17.482Z,14.2
2019-04-07T19:45:27.689Z,13.6
2019-04-07T19:50:17.280Z,13
2019-04-07T19:55:24.801Z,15
2019-04-07T20:05:21.058Z,14.8
2019-04-07T20:10:21.117Z,14.3
2019-04-07T20:15:17.996Z,9.2
2019-04-07T20:20:21.690Z,14.3
2019-04-07T20:25:18.953Z,18
2019-04-07T20:30:17.528Z,8.7
2019-04-07T20:35:31.947Z,14.4
2019-04-07T20:40:36.109Z,11.1
2019-04-07T21:41:52.035Z,13.9
2019-04-07T22:46:08.325Z,14.9
2019-04-07T22:55:31.203Z,7.5
2019-04-07T23:00:38.257Z,15.1
2019-04-07T23:05:25.867Z,14.7
2019-04-07T23:15:17.302Z,14.8
2019-04-07T23:20:39.815Z,15.3
2019-04-07T23:25:40.436Z,12.5
2019-04-07T23:30:43.019Z,16.9
2019-04-07T23:35:37.145Z,16.2
2019-04-07T23:40:17.266Z,19
2019-04-07T23:45:28.618Z,8.6
